Descanso, CA

2:55 AM PDT on July 04, 2015 (GMT -0700)
Descanso/Sherilton Valley | | Change Station
CLOSE
Current Station
Personal Weather Station
Location: Descanso, CA
Elevation: 3363 ft
Nearby Weather Stations

Elev 3363 ft 32.91 °N, 116.62 °W | Updated 2 minutes ago

Partly Cloudy
Partly Cloudy
60.7 °F
Feels Like 60.7 °F
N
0.0
Wind Variable Wind from ENE
Gusts 0.0 mph

Today
High -- | Low -- °F
--% Chance of Precip.
Yesterday
High -- | Low -- °F
Precip. -- in
5:43 AM 7:58 PM
Waning Gibbous, 93% visible
Pressure 29.80 in
Visibility -9999.0 miles
Clouds
Dew Point 55 °F
Humidity 82%
Rainfall 0.00 in
Snow Depth Not available.
UV Not available.
Pollen 4.40 out of 12
Air Quality Not available.
Flu Activity Not available.
METAR KCZZ 040952Z AUTO 04003KT 16/13 A2990 RMK AO1 SLP090 T01560133

More Conditions Fewer Conditions

Pressure 29.80 in
Visibility -9999.0 miles
Clouds
Dew Point 55 °F
Humidity 82%
Rainfall 0.00 in
Snow Depth Not available.
UV Not available.
Pollen 4.40 out of 12
Air Quality Not available.
Flu Activity Not available.
METAR KCZZ 040952Z AUTO 04003KT 16/13 A2990 RMK AO1 SLP090 T01560133

More Conditions Fewer Conditions

10-Day Weather Forecast

×

Almanac

Astronomy

Jul. 04, 2015 Rise Set
Actual Time
Civil Twilight
Nautical Twilight
Astronomical Twilight
Moon
Length of Visible Light
Length of Day
Tomorrow will be .
, % of the Moon is Illuminated

Today's Extremes

State Highs State Lows

Community

WunderPhotos

Upload Photos

1,834,933 photos uploaded!

WunderBlogs® & News

Nearby

Air Quality

  Air Quality AQ Index Pollutant
Not available.

Snow Depth

Station Depth Elevation

Earthquake Activity

City Distance Mag. Time & Date
Minimum magnitude displayed is 2.5.

Coastal Water Temperatures

Place Temperature

Stations

Nearby Weather Stations

Station Location Temp. Windchill Dew Point Humidity Wind Precip. Elev Updated Type